Terminal Aerodrome Forecast
Issued by NWS Birmingham, AL

Home | Current Version | Previous Version | Text Only | Print | Product List | Glossary On
Versions: 1 2 3 4 5 6 7 8 9 10 11 12 13 14 15 16 17 18 19 20 21 22 23 24 25 26 27 28 29 30 31 32 33 34 35 36
000
FTUS44 KBMX 161132
TAFBHM
TAF
KBHM 161132Z 1612/1712 21003KT 6SM BR OVC007
     FM161400 24003KT P6SM BKN025
     FM161700 23007KT P6SM VCTS SCT025CB BKN040 PROB30 1621/1702 2SM
      TSRA BKN025CB
     FM170200 21005KT P6SM BKN050 OVC250=

USA.gov is the U.S. government's official web portal to all federal, state and local government web resources and services.